createdAt,value
2018-06-19T00:00:00.115Z,57.70
2018-06-19T00:02:29.498Z,57.90
2018-06-19T00:04:58.725Z,58.60
2018-06-19T00:09:56.698Z,58.20
2018-06-19T00:12:25.994Z,58.70
2018-06-19T00:14:55.273Z,58.50
2018-06-19T00:17:24.410Z,58.60
2018-06-19T00:19:54.715Z,58.50
2018-06-19T00:24:53.190Z,59.00
2018-06-19T00:27:22.282Z,59.10
2018-06-19T00:29:52.350Z,58.90
2018-06-19T00:32:21.661Z,59.20
2018-06-19T00:34:51.080Z,58.80
2018-06-19T00:37:20.382Z,59.10
2018-06-19T00:39:49.866Z,59.50
2018-06-19T00:42:19.180Z,59.40
2018-06-19T00:44:48.547Z,59.50
2018-06-19T00:47:17.822Z,59.80
2018-06-19T00:49:46.950Z,59.50
2018-06-19T00:52:16.243Z,60.00
2018-06-19T00:54:45.414Z,59.80
2018-06-19T00:57:14.629Z,59.80
2018-06-19T00:59:44.064Z,60.30
2018-06-19T01:02:13.403Z,60.00
2018-06-19T01:04:42.602Z,60.40
2018-06-19T01:07:12.059Z,60.10
2018-06-19T01:09:41.270Z,60.40
2018-06-19T01:12:10.566Z,60.80
2018-06-19T01:14:39.846Z,60.40
2018-06-19T01:17:09.108Z,60.70
2018-06-19T01:19:38.466Z,60.90
2018-06-19T01:22:07.804Z,61.00
2018-06-19T01:24:37.118Z,60.90
2018-06-19T01:27:06.399Z,62.00
2018-06-19T01:29:35.710Z,61.10
2018-06-19T01:32:04.959Z,61.50
2018-06-19T01:34:34.616Z,61.10
2018-06-19T01:37:03.743Z,61.00
2018-06-19T01:39:33.034Z,62.80
2018-06-19T01:42:02.333Z,61.50
2018-06-19T01:44:31.549Z,62.40
2018-06-19T01:47:01.203Z,61.20
2018-06-19T01:49:30.518Z,62.60
2018-06-19T01:51:59.754Z,61.40
2018-06-19T01:54:29.042Z,62.60
2018-06-19T01:56:58.362Z,61.90
2018-06-19T01:59:27.762Z,61.20
2018-06-19T02:01:56.958Z,61.30
2018-06-19T02:04:26.334Z,60.80
2018-06-19T02:06:55.546Z,61.50
2018-06-19T02:09:24.687Z,60.70
2018-06-19T02:11:53.877Z,61.10
2018-06-19T02:14:23.016Z,61.20
2018-06-19T02:16:52.112Z,61.10
2018-06-19T02:19:22.142Z,60.90
2018-06-19T02:21:51.473Z,62.30
2018-06-19T02:24:20.670Z,61.20
2018-06-19T02:29:18.633Z,62.00
2018-06-19T02:31:47.870Z,60.80
2018-06-19T02:34:17.014Z,61.30
2018-06-19T02:36:46.526Z,61.80
2018-06-19T02:39:15.825Z,62.10
2018-06-19T02:41:45.154Z,62.50
2018-06-19T02:44:14.350Z,61.60
2018-06-19T02:46:43.956Z,61.80
2018-06-19T02:49:13.180Z,61.60
2018-06-19T02:51:42.503Z,63.00
2018-06-19T02:54:11.961Z,63.00
2018-06-19T02:56:41.398Z,62.30
2018-06-19T02:59:10.706Z,63.30
2018-06-19T03:01:40.104Z,63.40
2018-06-19T03:04:09.239Z,63.20
2018-06-19T03:06:38.393Z,63.00
2018-06-19T03:09:11.485Z,63.70
2018-06-19T03:11:40.773Z,64.30
2018-06-19T03:14:10.003Z,64.80
2018-06-19T03:16:39.242Z,65.50
2018-06-19T03:19:08.410Z,64.60
2018-06-19T03:21:37.727Z,64.50
2018-06-19T03:24:07.040Z,64.70
2018-06-19T03:26:36.342Z,64.40
2018-06-19T03:29:05.568Z,65.20
2018-06-19T03:31:35.108Z,65.50
2018-06-19T03:34:04.505Z,64.60
2018-06-19T03:36:33.853Z,64.30
2018-06-19T03:39:03.240Z,65.10
2018-06-19T03:41:32.495Z,64.60
2018-06-19T03:44:01.853Z,66.90
2018-06-19T03:46:31.159Z,67.10
2018-06-19T03:49:02.390Z,66.00
2018-06-19T03:51:31.802Z,66.60
2018-06-19T03:54:01.519Z,62.50
2018-06-19T03:56:31.434Z,62.20
2018-06-19T03:59:00.575Z,61.70
2018-06-19T04:01:29.987Z,63.80
2018-06-19T04:03:59.359Z,63.00
2018-06-19T04:06:31.558Z,63.60
2018-06-19T04:09:02.806Z,62.80
2018-06-19T04:11:32.094Z,61.70
2018-06-19T04:14:01.416Z,61.30
2018-06-19T04:16:31.800Z,60.40
2018-06-19T04:19:01.515Z,60.60
2018-06-19T04:21:30.942Z,60.70
2018-06-19T04:24:00.302Z,60.70
2018-06-19T04:26:29.541Z,60.70
2018-06-19T04:28:58.910Z,59.90
2018-06-19T04:31:28.370Z,60.00
2018-06-19T04:33:57.926Z,59.80
2018-06-19T04:36:27.082Z,59.90
2018-06-19T04:38:56.592Z,59.80
2018-06-19T04:41:25.896Z,59.60
2018-06-19T04:43:55.054Z,59.30
2018-06-19T04:46:24.591Z,59.10
2018-06-19T04:48:53.793Z,58.90
2018-06-19T04:51:23.957Z,58.70
2018-06-19T04:53:53.282Z,58.10
2018-06-19T04:56:22.657Z,58.20
2018-06-19T04:58:51.854Z,58.60
2018-06-19T05:01:21.158Z,58.50
2018-06-19T05:03:50.482Z,58.30
2018-06-19T05:06:19.787Z,58.30
2018-06-19T05:08:49.134Z,58.00
2018-06-19T05:11:18.414Z,58.60
2018-06-19T05:13:47.650Z,57.60
2018-06-19T05:16:16.951Z,57.70
2018-06-19T05:18:46.546Z,57.50
2018-06-19T05:21:16.335Z,57.60
2018-06-19T05:23:45.688Z,57.30
2018-06-19T05:26:15.159Z,57.10
2018-06-19T05:28:44.527Z,56.80
2018-06-19T05:31:14.234Z,55.00
2018-06-19T05:33:43.632Z,54.00
2018-06-19T05:36:13.062Z,54.60
2018-06-19T05:38:42.380Z,54.10
2018-06-19T05:41:13.748Z,55.00
2018-06-19T05:43:44.614Z,54.80
2018-06-19T05:46:13.915Z,56.10
2018-06-19T05:48:46.451Z,56.20
2018-06-19T05:51:15.770Z,54.20
2018-06-19T05:53:48.752Z,54.70
2018-06-19T05:56:18.611Z,53.90
2018-06-19T05:58:48.082Z,56.10
2018-06-19T06:01:18.636Z,54.30
2018-06-19T06:03:48.697Z,54.40
2018-06-19T06:06:19.476Z,54.20
2018-06-19T06:08:48.886Z,54.20
2018-06-19T06:11:22.231Z,55.30
2018-06-19T06:13:52.768Z,55.40
2018-06-19T06:16:22.156Z,54.00
2018-06-19T06:18:51.318Z,54.80
2018-06-19T06:21:20.706Z,53.50
2018-06-19T06:23:50.111Z,54.60
2018-06-19T06:26:19.591Z,54.30
2018-06-19T06:28:48.907Z,54.40
2018-06-19T06:31:18.377Z,53.90
2018-06-19T06:33:47.790Z,53.40
2018-06-19T06:36:17.035Z,53.10
2018-06-19T06:38:46.691Z,52.50
2018-06-19T06:41:16.236Z,51.80
2018-06-19T06:43:45.492Z,53.20
2018-06-19T06:46:15.008Z,52.10
2018-06-19T06:48:44.396Z,52.40
2018-06-19T06:51:13.814Z,51.20
2018-06-19T06:53:43.100Z,52.00
2018-06-19T06:56:13.660Z,51.40
2018-06-19T06:58:43.106Z,50.50
2018-06-19T07:01:13.176Z,49.80
2018-06-19T07:03:45.751Z,50.30
2018-06-19T07:06:24.526Z,48.00
2018-06-19T07:09:02.092Z,48.10
2018-06-19T07:11:38.414Z,48.20
2018-06-19T07:14:13.270Z,46.70
2018-06-19T07:19:23.141Z,43.50
2018-06-19T07:22:00.069Z,41.10
2018-06-19T07:24:37.857Z,40.30
2018-06-19T07:27:12.720Z,39.90
2018-06-19T07:29:46.881Z,39.10
2018-06-19T07:32:22.360Z,37.90
2018-06-19T07:34:53.820Z,38.10
2018-06-19T07:40:57.410Z,36.20
2018-06-19T07:43:29.036Z,35.60
2018-06-19T07:46:01.314Z,36.40
2018-06-19T07:48:33.830Z,35.80
2018-06-19T07:51:06.889Z,35.30
2018-06-19T07:53:38.614Z,34.80
2018-06-19T07:56:10.259Z,35.20
2018-06-19T07:58:42.348Z,35.10
2018-06-19T08:01:14.153Z,34.80
2018-06-19T08:03:45.981Z,34.50
2018-06-19T08:06:17.609Z,35.00
2018-06-19T08:08:49.375Z,35.60
2018-06-19T08:11:22.157Z,36.80
2018-06-19T08:13:53.726Z,37.60
2018-06-19T08:16:25.464Z,38.60
2018-06-19T08:18:59.193Z,38.70
2018-06-19T08:21:35.217Z,39.20
2018-06-19T08:24:09.420Z,37.80
2018-06-19T08:26:45.431Z,36.70
2018-06-19T08:29:20.734Z,35.50
2018-06-19T08:31:55.893Z,35.60
2018-06-19T08:34:29.945Z,34.80
2018-06-19T08:37:06.479Z,33.50
2018-06-19T08:42:14.768Z,32.60
2018-06-19T08:44:50.372Z,33.20
2018-06-19T08:47:25.990Z,32.60
2018-06-19T08:50:04.737Z,31.80
2018-06-19T08:52:40.830Z,32.70
2018-06-19T08:55:15.290Z,32.70
2018-06-19T08:57:49.559Z,32.40
2018-06-19T09:00:25.826Z,31.80
2018-06-19T09:02:59.472Z,31.60
2018-06-19T09:05:31.559Z,31.60
2018-06-19T09:08:02.736Z,31.20
2018-06-19T09:10:34.005Z,31.30
2018-06-19T09:13:04.757Z,31.70
2018-06-19T09:15:35.546Z,31.90
2018-06-19T09:18:06.381Z,32.60
2018-06-19T09:20:37.213Z,34.10
2018-06-19T09:23:07.896Z,34.30
2018-06-19T09:25:39.525Z,33.40
2018-06-19T09:28:11.313Z,34.50
2018-06-19T09:30:42.112Z,35.10
2018-06-19T09:33:12.837Z,34.30
2018-06-19T09:35:43.599Z,34.00
2018-06-19T09:38:14.261Z,33.20
2018-06-19T09:40:45.008Z,32.30
2018-06-19T09:43:15.780Z,32.60
2018-06-19T09:45:46.412Z,32.90
2018-06-19T09:48:17.304Z,33.30
2018-06-19T09:50:48.164Z,34.40
2018-06-19T09:53:18.390Z,36.50
2018-06-19T09:55:49.223Z,38.20
2018-06-19T09:58:18.577Z,39.50
2018-06-19T10:00:48.706Z,39.70
2018-06-19T10:03:19.064Z,40.10
2018-06-19T10:05:48.663Z,37.50
2018-06-19T10:08:18.877Z,35.10
2018-06-19T10:10:48.214Z,34.00
2018-06-19T10:13:17.490Z,35.10
2018-06-19T10:15:47.507Z,36.00
2018-06-19T10:18:16.782Z,34.30
2018-06-19T10:20:45.868Z,32.40
2018-06-19T10:23:15.738Z,31.80
2018-06-19T10:25:44.829Z,31.70
2018-06-19T10:28:14.097Z,32.70
2018-06-19T10:30:43.489Z,33.90
2018-06-19T10:33:13.349Z,35.10
2018-06-19T10:35:42.518Z,34.70
2018-06-19T10:38:11.632Z,34.90
2018-06-19T10:40:40.817Z,34.30
2018-06-19T10:43:10.309Z,33.50
2018-06-19T10:45:40.567Z,31.70
2018-06-19T10:48:10.579Z,31.30
2018-06-19T10:50:39.986Z,29.30
2018-06-19T10:53:09.358Z,29.30
2018-06-19T10:55:38.647Z,29.60
2018-06-19T10:58:09.072Z,30.00
2018-06-19T11:00:39.669Z,30.50
2018-06-19T11:03:10.112Z,30.20
2018-06-19T11:05:40.438Z,30.10
2018-06-19T11:08:10.046Z,30.50
2018-06-19T11:10:39.645Z,31.00
2018-06-19T11:13:09.512Z,31.90
2018-06-19T11:15:40.941Z,31.70
2018-06-19T11:18:10.187Z,32.00
2018-06-19T11:20:39.499Z,31.80
2018-06-19T11:23:08.770Z,31.20
2018-06-19T11:25:41.093Z,29.30
2018-06-19T11:28:11.293Z,28.60
2018-06-19T11:30:40.897Z,28.00
2018-06-19T11:33:10.503Z,29.00
2018-06-19T11:35:39.838Z,29.90
2018-06-19T11:38:09.659Z,29.80
2018-06-19T11:40:38.862Z,29.50
2018-06-19T11:43:08.306Z,29.20
2018-06-19T11:45:37.678Z,28.20
2018-06-19T11:48:07.735Z,28.10
2018-06-19T11:50:37.357Z,29.50
2018-06-19T11:53:06.618Z,28.50
2018-06-19T11:55:36.111Z,29.40
2018-06-19T11:58:05.649Z,30.00
2018-06-19T12:00:35.441Z,29.90
2018-06-19T12:03:05.539Z,30.00
2018-06-19T12:05:35.036Z,28.90
2018-06-19T12:08:04.406Z,29.20
2018-06-19T12:10:33.633Z,29.20
2018-06-19T12:13:02.996Z,29.30
2018-06-19T12:15:32.399Z,28.90
2018-06-19T12:18:02.008Z,29.10
2018-06-19T12:20:32.417Z,29.50
2018-06-19T12:23:01.795Z,30.10
2018-06-19T12:25:31.102Z,31.80
2018-06-19T12:28:00.798Z,32.70
2018-06-19T12:30:30.910Z,33.90
2018-06-19T12:33:00.351Z,34.00
2018-06-19T12:35:29.647Z,33.90
2018-06-19T12:40:27.799Z,33.30
2018-06-19T12:42:57.221Z,32.50
2018-06-19T12:47:55.663Z,32.20
2018-06-19T12:50:37.364Z,31.30
2018-06-19T12:53:18.353Z,31.70
2018-06-19T12:55:59.086Z,31.90
2018-06-19T12:58:28.381Z,31.50
2018-06-19T13:00:57.734Z,31.80
2018-06-19T13:03:37.976Z,31.90
2018-06-19T13:06:18.200Z,31.70
2018-06-19T13:08:47.430Z,31.40
2018-06-19T13:11:16.880Z,31.50
2018-06-19T13:13:57.421Z,31.30
2018-06-19T13:16:37.518Z,31.30
2018-06-19T13:19:17.527Z,31.10
2018-06-19T13:21:46.866Z,31.20
2018-06-19T13:24:16.287Z,31.60
2018-06-19T13:26:45.560Z,31.50
2018-06-19T13:29:54.663Z,31.60
2018-06-19T13:32:24.193Z,31.70
2018-06-19T13:34:53.600Z,31.50
2018-06-19T13:37:23.231Z,30.90
2018-06-19T13:41:10.930Z,31.20
2018-06-19T13:43:50.980Z,31.50
2018-06-19T13:46:20.690Z,31.50
2018-06-19T13:48:50.093Z,31.00
2018-06-19T13:51:19.594Z,31.30
2018-06-19T13:53:48.863Z,31.50
2018-06-19T13:57:35.232Z,31.40
2018-06-19T14:00:06.642Z,30.60
2018-06-19T14:02:36.217Z,31.30
2018-06-19T14:05:06.163Z,30.60
2018-06-19T14:07:41.108Z,31.70
2018-06-19T14:10:25.085Z,31.40
2018-06-19T14:13:08.845Z,31.20
2018-06-19T14:15:46.004Z,30.90
2018-06-19T14:18:16.358Z,31.70
2018-06-19T14:20:45.737Z,31.50
2018-06-19T14:23:15.309Z,31.60
2018-06-19T14:25:44.587Z,31.70
2018-06-19T14:28:13.897Z,31.50
2018-06-19T14:30:43.345Z,31.30
2018-06-19T14:33:13.591Z,31.50
2018-06-19T14:35:42.900Z,31.90
2018-06-19T14:38:12.210Z,32.30
2018-06-19T14:40:41.576Z,32.40
2018-06-19T14:43:10.866Z,32.90
2018-06-19T14:45:40.587Z,33.50
2018-06-19T14:48:09.848Z,32.80
2018-06-19T14:50:39.047Z,32.40
2018-06-19T14:53:08.285Z,32.60
2018-06-19T14:55:37.469Z,33.10
2018-06-19T14:58:06.662Z,33.40
2018-06-19T15:00:35.915Z,33.20
2018-06-19T15:03:05.229Z,33.30
2018-06-19T15:05:34.548Z,33.10
2018-06-19T15:08:03.985Z,33.40
2018-06-19T15:10:33.319Z,33.80
2018-06-19T15:13:02.633Z,34.40
2018-06-19T15:15:32.018Z,34.20
2018-06-19T15:18:01.263Z,34.20
2018-06-19T15:20:30.737Z,34.40
2018-06-19T15:23:00.071Z,34.10
2018-06-19T15:25:29.343Z,34.10
2018-06-19T15:27:59.633Z,33.90
2018-06-19T15:30:29.097Z,34.10
2018-06-19T15:32:58.288Z,34.30
2018-06-19T15:35:27.719Z,34.20
2018-06-19T15:37:56.959Z,34.30
2018-06-19T15:40:26.326Z,34.50
2018-06-19T15:42:55.912Z,34.40
2018-06-19T15:45:26.239Z,34.40
2018-06-19T15:47:55.535Z,34.20
2018-06-19T15:50:24.880Z,34.80
2018-06-19T15:52:54.628Z,34.80
2018-06-19T15:55:23.986Z,34.60
2018-06-19T15:57:53.285Z,34.70
2018-06-19T16:00:22.589Z,34.50
2018-06-19T16:02:51.838Z,34.40
2018-06-19T16:05:21.606Z,34.70
2018-06-19T16:07:55.782Z,34.90
2018-06-19T16:10:24.999Z,35.00
2018-06-19T16:12:54.349Z,35.30
2018-06-19T16:15:23.759Z,35.80
2018-06-19T16:17:53.151Z,35.20
2018-06-19T16:20:22.580Z,35.40
2018-06-19T16:22:52.106Z,35.50
2018-06-19T16:25:21.495Z,35.70
2018-06-19T16:27:50.686Z,35.80
2018-06-19T16:30:19.990Z,36.00
2018-06-19T16:32:49.266Z,35.70
2018-06-19T16:35:18.412Z,36.10
2018-06-19T16:37:47.970Z,36.60
2018-06-19T16:40:17.355Z,36.60
2018-06-19T16:42:46.898Z,36.60
2018-06-19T16:45:16.571Z,37.00
2018-06-19T16:47:46.136Z,36.90
2018-06-19T16:50:15.478Z,37.10
2018-06-19T16:52:44.759Z,37.20
2018-06-19T16:55:14.161Z,37.50
2018-06-19T16:57:43.508Z,37.70
2018-06-19T17:00:12.895Z,38.00
2018-06-19T17:02:42.194Z,38.20
2018-06-19T17:05:11.468Z,38.60
2018-06-19T17:07:42.827Z,38.80
2018-06-19T17:10:13.418Z,38.90
2018-06-19T17:12:43.363Z,39.20
2018-06-19T17:15:12.886Z,39.20
2018-06-19T17:17:43.361Z,39.80
2018-06-19T17:20:12.905Z,39.50
2018-06-19T17:22:42.281Z,39.70
2018-06-19T17:25:11.833Z,40.00
2018-06-19T17:27:41.338Z,40.00
2018-06-19T17:30:10.991Z,40.10
2018-06-19T17:32:40.207Z,40.40
2018-06-19T17:35:09.853Z,40.70
2018-06-19T17:37:39.284Z,40.90
2018-06-19T17:40:08.541Z,41.20
2018-06-19T17:42:37.889Z,41.30
2018-06-19T17:45:08.038Z,41.50
2018-06-19T17:47:37.322Z,41.80
2018-06-19T17:50:07.068Z,42.10
2018-06-19T17:52:39.576Z,42.20
2018-06-19T17:55:09.070Z,42.40
2018-06-19T17:57:38.431Z,42.60
2018-06-19T18:00:07.695Z,42.70
2018-06-19T18:02:37.237Z,42.90
2018-06-19T18:05:06.569Z,43.10
2018-06-19T18:07:35.749Z,43.30
2018-06-19T18:10:05.085Z,43.50
2018-06-19T18:12:34.404Z,43.80
2018-06-19T18:15:03.794Z,43.90
2018-06-19T18:17:33.159Z,44.20
2018-06-19T18:20:02.567Z,44.30
2018-06-19T18:22:32.041Z,44.80
2018-06-19T18:25:01.507Z,44.70
2018-06-19T18:27:30.800Z,44.70
2018-06-19T18:30:00.169Z,44.60
2018-06-19T18:32:29.479Z,44.90
2018-06-19T18:34:58.691Z,45.10
2018-06-19T18:37:27.882Z,45.60
2018-06-19T18:39:57.918Z,46.30
2018-06-19T18:42:27.305Z,45.00
2018-06-19T18:44:56.439Z,45.30
2018-06-19T18:47:25.791Z,45.50
2018-06-19T18:49:55.719Z,45.70
2018-06-19T18:52:24.999Z,45.90
2018-06-19T18:54:54.361Z,46.20
2018-06-19T18:57:23.434Z,46.60
2018-06-19T18:59:52.732Z,46.60
2018-06-19T19:02:22.204Z,46.80
2018-06-19T19:04:51.600Z,47.20
2018-06-19T19:07:21.014Z,47.40
2018-06-19T19:09:55.282Z,47.30
2018-06-19T19:12:24.581Z,47.40
2018-06-19T19:14:59.079Z,47.50
2018-06-19T19:17:33.438Z,47.70
2018-06-19T19:20:02.828Z,48.20
2018-06-19T19:22:32.201Z,48.10
2018-06-19T19:25:01.367Z,48.50
2018-06-19T19:27:35.765Z,48.70
2018-06-19T19:30:05.272Z,49.10
2018-06-19T19:32:34.924Z,48.90
2018-06-19T19:35:04.504Z,49.00
2018-06-19T19:37:39.056Z,49.40
2018-06-19T19:40:08.477Z,50.00
2018-06-19T19:42:37.971Z,49.20
2018-06-19T19:45:07.317Z,49.40
2018-06-19T19:47:41.723Z,49.60
2018-06-19T19:50:10.881Z,49.80
2018-06-19T19:52:40.153Z,49.80
2018-06-19T19:55:09.489Z,49.70
2018-06-19T19:57:43.768Z,50.10
2018-06-19T20:00:17.175Z,50.40
2018-06-19T20:02:46.424Z,50.60
2018-06-19T20:05:15.820Z,50.90
2018-06-19T20:07:45.024Z,51.40
2018-06-19T20:10:14.571Z,51.20
2018-06-19T20:12:43.912Z,51.30
2018-06-19T20:15:13.310Z,52.10
2018-06-19T20:17:43.084Z,51.80
2018-06-19T20:20:12.659Z,52.00
2018-06-19T20:22:42.473Z,52.90
2018-06-19T20:27:43.054Z,52.50
2018-06-19T20:30:12.607Z,52.60
2018-06-19T20:32:41.999Z,52.50
2018-06-19T20:35:11.329Z,52.80
2018-06-19T20:37:40.784Z,53.30
2018-06-19T20:40:10.061Z,52.80
2018-06-19T20:42:39.231Z,53.20
2018-06-19T20:45:08.595Z,53.10
2018-06-19T20:47:38.111Z,53.20
2018-06-19T20:50:07.342Z,53.20
2018-06-19T20:52:36.604Z,53.40
2018-06-19T20:55:06.831Z,53.60
2018-06-19T20:57:36.048Z,53.60
2018-06-19T21:00:05.316Z,53.70
2018-06-19T21:02:35.382Z,53.90
2018-06-19T21:05:04.827Z,53.90
2018-06-19T21:07:34.032Z,54.20
2018-06-19T21:10:03.496Z,54.30
2018-06-19T21:12:32.886Z,54.10
2018-06-19T21:15:02.427Z,54.10
2018-06-19T21:17:31.846Z,54.90
2018-06-19T21:20:01.099Z,54.70
2018-06-19T21:22:30.385Z,54.50
2018-06-19T21:24:59.781Z,54.70
2018-06-19T21:27:29.132Z,54.40
2018-06-19T21:29:58.568Z,55.00
2018-06-19T21:32:27.730Z,54.70
2018-06-19T21:34:57.206Z,55.20
2018-06-19T21:37:26.543Z,54.90
2018-06-19T21:39:55.763Z,55.60
2018-06-19T21:42:25.069Z,55.90
2018-06-19T21:44:54.326Z,56.40
2018-06-19T21:47:23.755Z,56.10
2018-06-19T21:49:52.950Z,55.50
2018-06-19T21:52:22.000Z,56.10
2018-06-19T21:54:51.284Z,56.40
2018-06-19T21:57:20.606Z,55.80
2018-06-19T21:59:49.873Z,56.20
2018-06-19T22:02:23.657Z,56.50
2018-06-19T22:04:53.144Z,57.30
2018-06-19T22:07:22.459Z,56.60
2018-06-19T22:09:51.694Z,57.40
2018-06-19T22:12:21.263Z,57.20
2018-06-19T22:14:50.474Z,56.80
2018-06-19T22:17:19.759Z,57.40
2018-06-19T22:19:49.195Z,58.40
2018-06-19T22:22:18.566Z,57.40
2018-06-19T22:24:48.108Z,57.50
2018-06-19T22:27:17.272Z,58.20
2018-06-19T22:29:46.496Z,58.30
2018-06-19T22:32:15.658Z,58.30
2018-06-19T22:34:44.894Z,58.60
2018-06-19T22:37:14.154Z,58.90
2018-06-19T22:39:44.367Z,59.10
2018-06-19T22:42:13.723Z,59.10
2018-06-19T22:44:43.081Z,59.30
2018-06-19T22:47:12.334Z,59.30
2018-06-19T22:49:41.518Z,60.50
2018-06-19T22:52:10.822Z,60.60
2018-06-19T22:54:40.150Z,59.90
2018-06-19T22:57:09.531Z,59.80
2018-06-19T22:59:38.761Z,60.00
2018-06-19T23:02:08.139Z,60.00
2018-06-19T23:04:37.443Z,60.50
2018-06-19T23:07:06.789Z,60.40
2018-06-19T23:09:36.184Z,60.30
2018-06-19T23:12:05.578Z,60.30
2018-06-19T23:14:34.740Z,60.30
2018-06-19T23:17:04.149Z,60.20
2018-06-19T23:19:33.463Z,60.40
2018-06-19T23:22:02.989Z,60.50
2018-06-19T23:24:32.060Z,60.40
2018-06-19T23:27:01.319Z,60.60
2018-06-19T23:29:30.519Z,60.50
2018-06-19T23:31:59.733Z,60.30
2018-06-19T23:34:28.877Z,60.70
2018-06-19T23:36:58.242Z,60.60
2018-06-19T23:39:27.521Z,60.40
2018-06-19T23:41:56.865Z,60.50
2018-06-19T23:44:26.176Z,61.00
2018-06-19T23:46:55.519Z,60.70
2018-06-19T23:49:25.038Z,60.50
2018-06-19T23:51:54.467Z,60.60
2018-06-19T23:54:24.035Z,61.50
2018-06-19T23:56:53.318Z,61.70
2018-06-19T23:59:22.506Z,62.10
